Time;durP1;ratioP1;P1;durP2;ratioP2;P2;SDS_P1;SDS_P2;PMS_P1;PMS_P2;Temp;Humidity;BMP_temperature;BMP_pressure;BME280_temperature;BME280_humidity;BME280_pressure;Samples;Min_cycle;Max_cycle;Signal;HPM_P1;HPM_P2
2022/01/04 00:00:11;;;;;;;0.93;0.50;;;;;;;;;;5015545;28;89531;-63
2022/01/04 00:02:37;;;;;;;2.20;0.70;;;;;;;;;;5016264;28;88254;-63
2022/01/04 00:05:04;;;;;;;1.15;0.70;;;;;;;;;;5018123;28;88766;-62
2022/01/04 00:07:31;;;;;;;2.05;0.85;;;;;;;;;;5039022;27;88983;-62
2022/01/04 00:09:58;;;;;;;0.77;0.50;;;;;;;;;;5020406;27;89066;-62
2022/01/04 00:15:09;;;;;;;1.05;0.70;;;;;;;;;;5019148;27;87245;-62
2022/01/04 00:17:35;;;;;;;0.70;0.60;;;;;;;;;;5023869;28;89027;-62
2022/01/04 00:20:06;;;;;;;1.30;0.60;;;;;;;;;;5021742;28;88103;-62
2022/01/04 00:22:32;;;;;;;;;;;;;;;;;;5017823;28;88690;-62
2022/01/04 00:24:58;;;;;;;2.03;0.80;;;;;;;;;;5025198;28;119277;-62
2022/01/04 00:27:25;;;;;;;1.13;0.80;;;;;;;;;;5023417;27;88066;-62
2022/01/04 00:29:51;;;;;;;0.98;0.60;;;;;;;;;;5021095;28;88752;-63
2022/01/04 00:32:17;;;;;;;1.42;0.68;;;;;;;;;;5033437;28;89197;-62
2022/01/04 00:34:43;;;;;;;1.17;0.68;;;;;;;;;;5024998;27;87933;-62
2022/01/04 00:37:10;;;;;;;1.30;0.70;;;;;;;;;;5018032;28;92372;-62
2022/01/04 00:39:36;;;;;;;1.00;0.70;;;;;;;;;;5022831;28;91652;-62
2022/01/04 00:42:03;;;;;;;0.85;0.60;;;;;;;;;;5014603;28;92745;-62
2022/01/04 00:44:29;;;;;;;0.73;0.60;;;;;;;;;;5019152;28;93715;-62
2022/01/04 00:46:56;;;;;;;0.88;0.68;;;;;;;;;;5021477;27;95052;-62
2022/01/04 00:49:22;;;;;;;1.25;0.70;;;;;;;;;;5023166;28;94171;-62
2022/01/04 00:51:50;;;;;;;2.30;0.75;;;;;;;;;;5019972;27;92992;-62
2022/01/04 00:54:17;;;;;;;0.60;0.60;;;;;;;;;;5014841;28;92373;-62
2022/01/04 00:56:44;;;;;;;0.80;0.68;;;;;;;;;;5031987;28;92377;-62
2022/01/04 00:59:10;;;;;;;1.02;0.70;;;;;;;;;;5016274;27;92433;-62
2022/01/04 01:01:37;;;;;;;1.05;0.75;;;;;;;;;;5014483;28;92381;-62
2022/01/04 01:04:04;;;;;;;3.00;0.70;;;;;;;;;;5016039;28;92974;-63
2022/01/04 01:06:31;;;;;;;0.60;0.60;;;;;;;;;;5021893;28;93000;-63
2022/01/04 01:08:57;;;;;;;1.77;0.80;;;;;;;;;;5014602;28;92680;-62
2022/01/04 01:11:23;;;;;;;1.55;0.70;;;;;;;;;;5012319;28;95838;-62
2022/01/04 01:13:50;;;;;;;1.50;0.63;;;;;;;;;;5011055;28;92439;-62
2022/01/04 01:16:16;;;;;;;0.90;0.63;;;;;;;;;;5025975;27;93440;-62
2022/01/04 01:18:43;;;;;;;1.23;0.90;;;;;;;;;;5013784;28;92476;-62
2022/01/04 01:21:09;;;;;;;0.98;0.52;;;;;;;;;;5019740;28;94178;-63
2022/01/04 01:23:36;;;;;;;0.75;0.55;;;;;;;;;;5016392;27;94426;-62
2022/01/04 01:26:03;;;;;;;1.30;0.77;;;;;;;;;;5027773;28;92543;-63
2022/01/04 01:28:31;;;;;;;0.70;0.50;;;;;;;;;;5015803;27;92923;-62
2022/01/04 01:30:57;;;;;;;1.38;0.70;;;;;;;;;;5013552;28;92632;-62
2022/01/04 01:33:24;;;;;;;1.13;0.70;;;;;;;;;;5030448;28;92776;-63
2022/01/04 01:35:51;;;;;;;3.08;0.90;;;;;;;;;;5024678;28;95287;-62
2022/01/04 01:38:19;;;;;;;1.13;0.63;;;;;;;;;;5013855;28;92508;-62
2022/01/04 01:40:46;;;;;;;1.13;0.68;;;;;;;;;;5013422;28;93048;-62
2022/01/04 01:43:13;;;;;;;1.33;0.77;;;;;;;;;;5012882;28;94134;-62
2022/01/04 01:45:40;;;;;;;0.70;0.65;;;;;;;;;;5023915;28;92521;-62
2022/01/04 01:48:06;;;;;;;1.38;0.77;;;;;;;;;;5024168;27;94241;-62
2022/01/04 01:50:33;;;;;;;1.35;0.82;;;;;;;;;;5013188;28;92371;-62
2022/01/04 01:52:59;;;;;;;1.10;0.70;;;;;;;;;;5023324;28;91805;-62
2022/01/04 01:55:26;;;;;;;1.35;0.88;;;;;;;;;;5025298;28;92570;-62
2022/01/04 01:57:52;;;;;;;2.33;0.70;;;;;;;;;;5026256;27;92519;-62
2022/01/04 02:00:20;;;;;;;0.98;0.70;;;;;;;;;;5013283;28;95411;-62
2022/01/04 02:02:47;;;;;;;0.80;0.60;;;;;;;;;;5004256;28;94644;-62
2022/01/04 02:05:14;;;;;;;0.73;0.70;;;;;;;;;;5008904;28;92404;-62
2022/01/04 02:07:41;;;;;;;2.15;0.98;;;;;;;;;;5020113;28;92686;-62
2022/01/04 02:10:08;;;;;;;1.65;0.90;;;;;;;;;;5012785;28;93439;-62
2022/01/04 02:12:35;;;;;;;1.55;0.93;;;;;;;;;;5016713;28;92349;-62
2022/01/04 02:15:03;;;;;;;2.08;0.85;;;;;;;;;;5028883;27;93141;-63
2022/01/04 02:17:29;;;;;;;0.50;0.50;;;;;;;;;;5026082;28;91975;-62
2022/01/04 02:19:56;;;;;;;0.82;0.57;;;;;;;;;;5012927;28;92359;-62
2022/01/04 02:22:23;;;;;;;1.85;0.65;;;;;;;;;;5014102;28;94402;-63
2022/01/04 02:24:49;;;;;;;0.68;0.60;;;;;;;;;;5011744;28;94766;-62
2022/01/04 02:27:16;;;;;;;1.65;0.70;;;;;;;;;;5011681;28;95522;-62
2022/01/04 02:29:43;;;;;;;0.50;0.50;;;;;;;;;;5012180;28;92525;-62
2022/01/04 02:32:09;;;;;;;1.02;0.73;;;;;;;;;;5005502;28;92450;-62
2022/01/04 02:34:35;;;;;;;0.80;0.70;;;;;;;;;;5023282;27;92240;-62
2022/01/04 02:37:02;;;;;;;1.08;0.77;;;;;;;;;;5019617;28;93448;-62
2022/01/04 02:39:29;;;;;;;1.00;0.52;;;;;;;;;;5015507;28;92403;-62
2022/01/04 02:41:56;;;;;;;0.80;0.77;;;;;;;;;;5012558;28;92500;-62
2022/01/04 02:44:22;;;;;;;0.70;0.60;;;;;;;;;;5031213;28;92366;-62
2022/01/04 02:46:49;;;;;;;0.70;0.70;;;;;;;;;;5014288;27;93127;-62
2022/01/04 02:49:15;;;;;;;0.70;0.70;;;;;;;;;;5010891;28;95488;-62
2022/01/04 02:51:41;;;;;;;0.70;0.60;;;;;;;;;;5012860;28;92472;-62
2022/01/04 02:54:07;;;;;;;1.15;0.70;;;;;;;;;;5015938;28;92466;-62
2022/01/04 02:56:34;;;;;;;0.60;0.60;;;;;;;;;;5019013;28;92510;-62
2022/01/04 02:59:03;;;;;;;0.68;0.60;;;;;;;;;;5014628;27;92427;-62
2022/01/04 03:01:30;;;;;;;0.75;0.57;;;;;;;;;;5003595;28;92500;-63
2022/01/04 03:03:57;;;;;;;0.45;0.40;;;;;;;;;;5028317;27;92545;-62
2022/01/04 03:06:23;;;;;;;1.85;0.90;;;;;;;;;;5028059;27;92482;-62
2022/01/04 03:08:49;;;;;;;0.77;0.57;;;;;;;;;;5012524;28;92571;-62
2022/01/04 03:11:16;;;;;;;1.15;0.70;;;;;;;;;;5012642;28;92598;-63
2022/01/04 03:13:42;;;;;;;0.50;0.50;;;;;;;;;;5031009;27;94766;-62
2022/01/04 03:16:08;;;;;;;1.17;0.70;;;;;;;;;;5026239;27;93279;-63
2022/01/04 03:18:39;;;;;;;0.95;0.68;;;;;;;;;;5013763;27;92381;-62
2022/01/04 03:21:05;;;;;;;0.52;0.52;;;;;;;;;;5012275;28;92342;-62
2022/01/04 03:23:31;;;;;;;1.00;0.80;;;;;;;;;;5020912;27;93316;-62
2022/01/04 03:25:57;;;;;;;0.73;0.50;;;;;;;;;;5014530;28;92830;-62
2022/01/04 03:28:24;;;;;;;1.00;0.77;;;;;;;;;;5011365;28;94459;-62
2022/01/04 03:30:50;;;;;;;1.08;0.70;;;;;;;;;;5013072;28;91733;-62
2022/01/04 03:33:16;;;;;;;3.55;0.70;;;;;;;;;;5012483;28;92457;-62
2022/01/04 03:35:43;;;;;;;0.60;0.60;;;;;;;;;;5012163;28;93387;-63
2022/01/04 03:38:09;;;;;;;0.70;0.70;;;;;;;;;;5010450;28;94885;-62
2022/01/04 03:40:36;;;;;;;0.50;0.50;;;;;;;;;;5010981;28;94007;-63
2022/01/04 03:43:02;;;;;;;0.98;0.75;;;;;;;;;;5019052;28;94534;-63
2022/01/04 03:45:28;;;;;;;0.68;0.68;;;;;;;;;;5025112;27;93333;-62
2022/01/04 03:47:54;;;;;;;1.20;0.70;;;;;;;;;;5011296;28;94230;-63
2022/01/04 03:50:21;;;;;;;0.90;0.65;;;;;;;;;;5013639;28;92554;-63
2022/01/04 03:52:47;;;;;;;1.13;0.80;;;;;;;;;;5001152;28;93312;-63
2022/01/04 03:55:13;;;;;;;0.63;0.57;;;;;;;;;;5011795;28;93693;-62
2022/01/04 03:57:40;;;;;;;0.80;0.57;;;;;;;;;;5016391;28;92447;-63
2022/01/04 04:00:06;;;;;;;1.00;0.57;;;;;;;;;;5012759;28;93002;-63
2022/01/04 04:02:33;;;;;;;0.60;0.52;;;;;;;;;;5016639;28;94826;-63
2022/01/04 04:04:59;;;;;;;0.70;0.70;;;;;;;;;;5023089;27;92436;-62
2022/01/04 04:07:30;;;;;;;0.70;0.52;;;;;;;;;;5023279;28;92637;-62
2022/01/04 04:09:57;;;;;;;1.10;0.70;;;;;;;;;;5022822;27;93308;-63
2022/01/04 04:12:23;;;;;;;1.25;0.80;;;;;;;;;;5011637;28;93037;-63
2022/01/04 04:14:50;;;;;;;0.93;0.60;;;;;;;;;;5011281;28;92548;-62
2022/01/04 04:17:18;;;;;;;0.60;0.60;;;;;;;;;;5020958;28;92732;-62
2022/01/04 04:19:44;;;;;;;0.63;0.63;;;;;;;;;;5024524;27;91675;-63
2022/01/04 04:22:10;;;;;;;1.13;0.52;;;;;;;;;;5015452;28;94222;-63
2022/01/04 04:24:36;;;;;;;0.75;0.60;;;;;;;;;;5014275;28;92409;-63
2022/01/04 04:27:03;;;;;;;0.70;0.70;;;;;;;;;;5016966;28;94686;-63
2022/01/04 04:29:29;;;;;;;0.60;0.60;;;;;;;;;;5012283;28;92564;-62
2022/01/04 04:31:56;;;;;;;0.57;0.57;;;;;;;;;;5011234;28;93977;-63
2022/01/04 04:34:22;;;;;;;0.63;0.50;;;;;;;;;;5011117;28;92451;-63
2022/01/04 04:36:48;;;;;;;1.58;0.80;;;;;;;;;;5016042;28;92449;-62
2022/01/04 04:39:17;;;;;;;0.57;0.57;;;;;;;;;;5018321;27;92821;-63
2022/01/04 04:41:43;;;;;;;0.50;0.47;;;;;;;;;;5024973;28;92387;-62
2022/01/04 04:44:09;;;;;;;0.68;0.68;;;;;;;;;;5029355;28;92000;-62
2022/01/04 04:46:35;;;;;;;1.67;0.60;;;;;;;;;;5013815;27;92406;-63
2022/01/04 04:49:02;;;;;;;1.95;0.75;;;;;;;;;;5019545;28;92519;-62
2022/01/04 04:51:28;;;;;;;1.25;0.70;;;;;;;;;;5017967;27;94977;-62
2022/01/04 04:53:54;;;;;;;0.80;0.70;;;;;;;;;;5019794;28;94201;-62
2022/01/04 04:56:20;;;;;;;0.50;0.50;;;;;;;;;;5014879;28;92413;-62
2022/01/04 04:58:47;;;;;;;0.80;0.80;;;;;;;;;;5015438;28;94058;-62
2022/01/04 05:01:13;;;;;;;0.60;0.60;;;;;;;;;;5018313;28;92361;-62
2022/01/04 05:03:40;;;;;;;1.08;0.80;;;;;;;;;;5022151;28;94391;-62
2022/01/04 05:06:06;;;;;;;0.80;0.68;;;;;;;;;;5013940;28;92847;-63
2022/01/04 05:08:32;;;;;;;0.52;0.52;;;;;;;;;;5014335;28;91614;-62
2022/01/04 05:10:58;;;;;;;0.65;0.55;;;;;;;;;;5023811;28;92608;-62
2022/01/04 05:13:25;;;;;;;0.80;0.80;;;;;;;;;;5034194;27;93392;-62
2022/01/04 05:15:51;;;;;;;0.75;0.70;;;;;;;;;;5023033;27;94798;-62
2022/01/04 05:18:17;;;;;;;0.95;0.60;;;;;;;;;;5019077;28;95321;-63
2022/01/04 05:20:44;;;;;;;1.08;0.60;;;;;;;;;;5015040;27;92386;-62
2022/01/04 05:23:10;;;;;;;1.38;0.63;;;;;;;;;;5014223;28;93184;-62
2022/01/04 05:25:36;;;;;;;1.20;0.63;;;;;;;;;;5013287;28;92493;-62
2022/01/04 05:28:02;;;;;;;1.98;0.80;;;;;;;;;;5019737;28;93497;-62
2022/01/04 05:30:29;;;;;;;0.60;0.60;;;;;;;;;;5013611;28;93328;-62
2022/01/04 05:32:55;;;;;;;0.73;0.70;;;;;;;;;;5016711;28;92991;-62
2022/01/04 05:35:21;;;;;;;1.38;0.95;;;;;;;;;;5013534;28;92354;-62
2022/01/04 05:37:47;;;;;;;1.35;0.80;;;;;;;;;;5020011;28;92419;-63
2022/01/04 05:40:14;;;;;;;0.50;0.50;;;;;;;;;;5019677;27;95727;-62
2022/01/04 05:42:40;;;;;;;0.50;0.50;;;;;;;;;;5033032;28;92368;-62
2022/01/04 05:45:07;;;;;;;0.60;0.60;;;;;;;;;;5019071;27;92487;-63
2022/01/04 05:47:33;;;;;;;0.50;0.50;;;;;;;;;;4997808;28;92490;-63
2022/01/04 05:49:59;;;;;;;1.05;0.60;;;;;;;;;;5013403;28;92487;-62
2022/01/04 05:52:25;;;;;;;0.57;0.57;;;;;;;;;;5020230;27;94147;-62
2022/01/04 05:54:52;;;;;;;0.65;0.65;;;;;;;;;;5014206;28;92608;-62
2022/01/04 05:57:18;;;;;;;0.88;0.55;;;;;;;;;;5022747;28;91685;-62
2022/01/04 05:59:44;;;;;;;0.65;0.65;;;;;;;;;;5013400;28;93225;-62
2022/01/04 06:02:11;;;;;;;0.55;0.50;;;;;;;;;;5015961;28;92413;-63
2022/01/04 06:04:37;;;;;;;0.63;0.63;;;;;;;;;;5011049;28;94851;-62
2022/01/04 06:07:03;;;;;;;0.75;0.75;;;;;;;;;;5013093;28;93481;-62
2022/01/04 06:09:40;;;;;;;0.68;0.68;;;;;;;;;;5013208;28;92360;-62
2022/01/04 06:14:50;;;;;;;0.77;0.75;;;;;;;;;;5014238;28;92783;-62
2022/01/04 06:14:59;;;;;;;0.60;0.60;;;;;;;;;;5016570;28;94539;-63
2022/01/04 06:17:27;;;;;;;0.50;0.50;;;;;;;;;;5014214;28;93857;-62
2022/01/04 06:19:55;;;;;;;0.52;0.52;;;;;;;;;;5015135;28;93258;-62
2022/01/04 06:22:22;;;;;;;0.85;0.60;;;;;;;;;;5015312;28;92061;-63
2022/01/04 06:24:48;;;;;;;0.65;0.50;;;;;;;;;;5019528;28;92414;-62
2022/01/04 06:27:14;;;;;;;0.95;0.65;;;;;;;;;;5016482;28;93533;-62
2022/01/04 06:29:41;;;;;;;0.70;0.50;;;;;;;;;;5011818;28;94809;-62
2022/01/04 06:32:07;;;;;;;1.15;0.50;;;;;;;;;;5012840;28;94021;-62
2022/01/04 06:34:34;;;;;;;0.80;0.60;;;;;;;;;;5019652;28;92483;-62
2022/01/04 06:37:01;;;;;;;1.02;0.68;;;;;;;;;;5020690;28;92418;-62
2022/01/04 06:39:27;;;;;;;0.98;0.60;;;;;;;;;;5020915;27;92435;-62
2022/01/04 06:41:53;;;;;;;1.23;0.75;;;;;;;;;;5012394;28;92527;-62
2022/01/04 06:44:20;;;;;;;0.60;0.60;;;;;;;;;;5025093;28;93153;-62
2022/01/04 06:46:46;;;;;;;0.70;0.55;;;;;;;;;;5012925;28;92111;-62
2022/01/04 06:49:13;;;;;;;0.55;0.52;;;;;;;;;;5011612;28;93907;-63
2022/01/04 06:51:40;;;;;;;0.60;0.60;;;;;;;;;;5017157;28;92898;-62
2022/01/04 06:54:07;;;;;;;0.52;0.52;;;;;;;;;;5015954;28;94820;-62
2022/01/04 06:56:33;;;;;;;0.57;0.57;;;;;;;;;;5016659;28;92492;-62
2022/01/04 06:59:00;;;;;;;0.70;0.70;;;;;;;;;;5013754;28;94112;-62
2022/01/04 07:01:26;;;;;;;0.47;0.47;;;;;;;;;;5012548;28;92407;-62
2022/01/04 07:03:52;;;;;;;0.50;0.50;;;;;;;;;;5012689;28;92362;-63
2022/01/04 07:06:19;;;;;;;1.00;0.68;;;;;;;;;;5012292;28;93453;-62
2022/01/04 07:08:45;;;;;;;1.05;0.60;;;;;;;;;;5012029;28;93914;-62
2022/01/04 07:11:11;;;;;;;0.95;0.50;;;;;;;;;;5012234;28;92901;-62
2022/01/04 07:13:37;;;;;;;0.95;0.70;;;;;;;;;;5011755;28;92665;-62
2022/01/04 07:16:04;;;;;;;0.60;0.60;;;;;;;;;;5011779;28;92443;-62
2022/01/04 07:18:30;;;;;;;0.60;0.60;;;;;;;;;;5010517;28;94749;-63
2022/01/04 07:20:56;;;;;;;0.60;0.60;;;;;;;;;;5014885;28;92420;-63
2022/01/04 07:23:23;;;;;;;0.80;0.70;;;;;;;;;;5027427;28;92742;-63
2022/01/04 07:25:49;;;;;;;0.60;0.57;;;;;;;;;;5012254;28;92760;-62
2022/01/04 07:28:15;;;;;;;0.60;0.60;;;;;;;;;;5011904;28;92412;-62
2022/01/04 07:30:43;;;;;;;0.70;0.70;;;;;;;;;;5012339;28;92761;-62
2022/01/04 07:33:09;;;;;;;1.35;0.60;;;;;;;;;;5021692;28;93604;-62
2022/01/04 07:35:36;;;;;;;0.60;0.60;;;;;;;;;;5025284;28;91789;-62
2022/01/04 07:38:03;;;;;;;1.50;0.85;;;;;;;;;;5013308;27;92592;-62
2022/01/04 07:40:29;;;;;;;0.60;0.60;;;;;;;;;;5011719;28;92417;-63
2022/01/04 07:43:00;;;;;;;0.68;0.50;;;;;;;;;;5013353;28;94861;-62
2022/01/04 07:45:30;;;;;;;0.75;0.70;;;;;;;;;;5011368;28;92668;-62
2022/01/04 07:47:57;;;;;;;0.80;0.68;;;;;;;;;;5012179;28;92366;-62
2022/01/04 07:50:23;;;;;;;1.13;0.60;;;;;;;;;;5011408;28;92417;-62
2022/01/04 07:52:49;;;;;;;0.57;0.57;;;;;;;;;;5011518;28;92669;-62
2022/01/04 07:55:16;;;;;;;0.60;0.60;;;;;;;;;;5011865;28;92557;-62
2022/01/04 07:57:44;;;;;;;1.00;0.73;;;;;;;;;;5016816;28;92936;-62
2022/01/04 08:00:12;;;;;;;0.70;0.60;;;;;;;;;;5029563;28;92841;-62
2022/01/04 08:02:40;;;;;;;0.63;0.60;;;;;;;;;;5026107;28;92460;-62
2022/01/04 08:05:10;;;;;;;1.08;0.85;;;;;;;;;;5014249;28;93428;-63
2022/01/04 08:07:36;;;;;;;0.60;0.60;;;;;;;;;;4998258;28;94924;-62
2022/01/04 08:10:03;;;;;;;0.80;0.80;;;;;;;;;;5012656;28;94210;-62
2022/01/04 08:12:29;;;;;;;1.23;0.88;;;;;;;;;;5011577;28;92662;-62
2022/01/04 08:14:55;;;;;;;0.73;0.73;;;;;;;;;;5010998;28;92907;-62
2022/01/04 08:17:22;;;;;;;0.55;0.55;;;;;;;;;;5012605;28;94250;-62
2022/01/04 08:19:51;;;;;;;0.75;0.55;;;;;;;;;;5011609;27;92349;-62
2022/01/04 08:22:17;;;;;;;0.50;0.50;;;;;;;;;;5011949;28;92475;-62
2022/01/04 08:24:44;;;;;;;0.43;0.43;;;;;;;;;;5021297;28;91990;-62
2022/01/04 08:27:10;;;;;;;0.63;0.63;;;;;;;;;;5031950;27;93870;-64
2022/01/04 08:29:36;;;;;;;1.60;1.00;;;;;;;;;;5034734;27;92383;-61
2022/01/04 08:32:03;;;;;;;8.60;1.05;;;;;;;;;;5032674;27;94842;-62
2022/01/04 08:34:29;;;;;;;1.45;0.90;;;;;;;;;;5033339;27;92444;-62
2022/01/04 08:36:56;;;;;;;2.13;1.00;;;;;;;;;;5023029;27;92646;-61
2022/01/04 08:39:26;;;;;;;1.63;0.93;;;;;;;;;;5014429;28;93398;-61
2022/01/04 08:41:55;;;;;;;1.05;0.98;;;;;;;;;;5015346;28;92398;-61
2022/01/04 08:44:22;;;;;;;1.10;1.00;;;;;;;;;;5018622;28;93133;-61
2022/01/04 08:46:49;;;;;;;2.30;1.20;;;;;;;;;;5037535;27;93622;-61
2022/01/04 08:49:15;;;;;;;1.20;1.00;;;;;;;;;;5021416;27;93123;-61
2022/01/04 08:51:41;;;;;;;0.77;0.77;;;;;;;;;;5018365;28;93375;-61
2022/01/04 08:54:08;;;;;;;0.80;0.80;;;;;;;;;;5018428;28;92427;-62
2022/01/04 08:56:34;;;;;;;2.13;0.93;;;;;;;;;;5020544;27;94676;-61
2022/01/04 08:59:03;;;;;;;1.05;0.80;;;;;;;;;;5013428;28;92497;-61
2022/01/04 09:01:30;;;;;;;1.27;0.93;;;;;;;;;;5012343;28;92550;-61
2022/01/04 09:03:56;;;;;;;1.23;0.88;;;;;;;;;;5014150;28;92357;-61
2022/01/04 09:06:23;;;;;;;2.33;1.05;;;;;;;;;;5014122;28;92463;-61
2022/01/04 09:08:51;;;;;;;1.10;0.93;;;;;;;;;;5017627;28;92278;-61
2022/01/04 09:11:21;;;;;;;2.88;0.98;;;;;;;;;;5013974;28;93138;-61
2022/01/04 09:13:54;;;;;;;0.98;0.73;;;;;;;;;;5014341;28;91628;-61
2022/01/04 09:19:05;;;;;;;1.65;0.88;;;;;;;;;;4994236;28;93104;-61
2022/01/04 09:21:32;;;;;;;0.88;0.80;;;;;;;;;;5034849;27;94944;-61
2022/01/04 09:23:59;;;;;;;2.20;0.80;;;;;;;;;;5014007;28;95670;-61
2022/01/04 09:26:26;;;;;;;0.70;0.70;;;;;;;;;;5013855;28;92614;-61
2022/01/04 09:28:53;;;;;;;2.17;0.70;;;;;;;;;;5014048;28;92334;-61
2022/01/04 09:31:20;;;;;;;3.05;0.88;;;;;;;;;;5021435;28;93600;-61
2022/01/04 09:33:47;;;;;;;2.83;0.80;;;;;;;;;;5026669;27;92397;-62
2022/01/04 09:36:30;;;;;;;0.70;0.70;;;;;;;;;;5016464;28;93111;-61
2022/01/04 09:38:56;;;;;;;1.00;0.70;;;;;;;;;;5013771;28;91655;-62
2022/01/04 09:41:22;;;;;;;0.82;0.68;;;;;;;;;;5023676;28;92849;-62
2022/01/04 09:43:49;;;;;;;1.38;0.77;;;;;;;;;;5011122;28;92356;-61
2022/01/04 09:46:15;;;;;;;2.05;0.93;;;;;;;;;;5012122;28;96792;-62
2022/01/04 09:48:42;;;;;;;0.50;0.50;;;;;;;;;;5018576;28;93025;-62
2022/01/04 09:51:10;;;;;;;0.88;0.77;;;;;;;;;;5026711;27;92442;-61
2022/01/04 09:53:36;;;;;;;1.75;0.90;;;;;;;;;;5016577;28;94425;-62
2022/01/04 09:56:03;;;;;;;0.70;0.70;;;;;;;;;;5013606;28;92382;-61
2022/01/04 09:58:30;;;;;;;0.80;0.80;;;;;;;;;;5004723;28;92277;-61
2022/01/04 10:00:56;;;;;;;0.68;0.68;;;;;;;;;;5012745;28;92551;-61
2022/01/04 10:03:26;;;;;;;0.88;0.70;;;;;;;;;;5013508;28;93166;-61
2022/01/04 10:06:14;;;;;;;0.50;0.50;;;;;;;;;;5013197;28;93410;-61
2022/01/04 10:08:50;;;;;;;0.95;0.70;;;;;;;;;;5014203;28;92334;-61
2022/01/04 10:11:16;;;;;;;0.70;0.65;;;;;;;;;;5005372;28;95085;-61
2022/01/04 10:13:42;;;;;;;0.57;0.57;;;;;;;;;;5015587;28;95189;-61
2022/01/04 10:16:14;;;;;;;1.83;0.70;;;;;;;;;;5013416;28;93106;-61
2022/01/04 10:18:40;;;;;;;2.47;0.80;;;;;;;;;;5013252;28;93317;-61
2022/01/04 10:21:07;;;;;;;1.02;0.75;;;;;;;;;;5003348;28;92435;-61
2022/01/04 10:23:42;;;;;;;0.55;0.55;;;;;;;;;;5013130;28;96035;-61
2022/01/04 10:26:08;;;;;;;1.85;0.60;;;;;;;;;;5012516;28;92423;-61
2022/01/04 10:28:40;;;;;;;0.90;0.70;;;;;;;;;;5012518;28;91622;-61
2022/01/04 10:31:07;;;;;;;1.27;0.68;;;;;;;;;;5012609;28;92317;-61
2022/01/04 10:33:34;;;;;;;0.90;0.60;;;;;;;;;;5011138;28;94153;-61
2022/01/04 10:36:05;;;;;;;0.55;0.55;;;;;;;;;;5013381;28;94784;-61
2022/01/04 10:38:31;;;;;;;;;;;;;;;;;;5013049;28;92289;-61
2022/01/04 10:40:59;;;;;;;1.42;0.70;;;;;;;;;;5012981;28;118395;-61
2022/01/04 10:43:36;;;;;;;0.90;0.60;;;;;;;;;;5012574;28;93206;-61
2022/01/04 10:46:02;;;;;;;0.60;0.60;;;;;;;;;;5011755;28;92470;-62
2022/01/04 10:48:34;;;;;;;0.60;0.60;;;;;;;;;;5012993;28;93081;-61
2022/01/04 10:51:07;;;;;;;2.05;0.60;;;;;;;;;;5014665;28;92521;-61
2022/01/04 10:53:41;;;;;;;0.68;0.65;;;;;;;;;;5014935;28;93555;-61
2022/01/04 10:56:09;;;;;;;0.57;0.57;;;;;;;;;;5032752;27;92547;-62
2022/01/04 10:58:46;;;;;;;0.60;0.60;;;;;;;;;;5016813;27;93176;-62
2022/01/04 11:01:15;;;;;;;0.70;0.70;;;;;;;;;;5010101;28;94906;-61
2022/01/04 11:03:43;;;;;;;0.70;0.70;;;;;;;;;;5011699;28;95529;-62
2022/01/04 11:06:19;;;;;;;1.13;1.00;;;;;;;;;;5003947;28;92500;-62
2022/01/04 11:08:45;;;;;;;0.75;0.70;;;;;;;;;;5012070;28;92543;-62
2022/01/04 11:11:12;;;;;;;0.63;0.63;;;;;;;;;;5011317;28;92430;-62
2022/01/04 11:13:38;;;;;;;0.73;0.73;;;;;;;;;;5011054;28;94263;-62
2022/01/04 11:16:05;;;;;;;0.65;0.65;;;;;;;;;;5011900;28;92670;-62
2022/01/04 11:18:32;;;;;;;0.70;0.70;;;;;;;;;;5009036;28;93279;-62
2022/01/04 11:20:59;;;;;;;1.05;0.75;;;;;;;;;;5023244;28;93196;-61
2022/01/04 11:23:29;;;;;;;3.88;0.80;;;;;;;;;;5008745;28;92990;-61
2022/01/04 11:25:56;;;;;;;2.08;1.00;;;;;;;;;;5009919;28;94804;-62
2022/01/04 11:28:22;;;;;;;11.90;2.00;;;;;;;;;;5011474;28;92561;-61
2022/01/04 11:30:54;;;;;;;5.40;1.60;;;;;;;;;;5009329;28;93256;-61
2022/01/04 11:33:24;;;;;;;5.63;1.50;;;;;;;;;;5011292;28;94641;-61
2022/01/04 11:35:50;;;;;;;6.00;1.38;;;;;;;;;;5012339;28;92485;-61
2022/01/04 11:38:29;;;;;;;9.18;1.95;;;;;;;;;;5006983;28;92529;-60
2022/01/04 11:40:55;;;;;;;4.57;1.73;;;;;;;;;;5011086;28;92557;-61
2022/01/04 11:43:31;;;;;;;5.57;2.13;;;;;;;;;;5016223;28;92166;-61
2022/01/04 11:45:57;;;;;;;5.18;1.48;;;;;;;;;;5011132;28;93402;-60
2022/01/04 11:48:24;;;;;;;7.95;1.80;;;;;;;;;;5010575;28;93541;-60
2022/01/04 11:50:51;;;;;;;9.13;1.35;;;;;;;;;;5011109;28;94845;-60
2022/01/04 11:53:22;;;;;;;2.55;1.20;;;;;;;;;;5011983;28;93394;-60
2022/01/04 11:55:55;;;;;;;6.70;1.60;;;;;;;;;;5013273;28;92363;-60
2022/01/04 11:58:23;;;;;;;7.53;2.08;;;;;;;;;;5013471;28;93273;-60
2022/01/04 12:00:57;;;;;;;6.70;1.73;;;;;;;;;;5014917;28;92345;-60
2022/01/04 12:03:43;;;;;;;9.68;1.63;;;;;;;;;;5025871;27;92386;-60
2022/01/04 12:06:10;;;;;;;10.00;1.73;;;;;;;;;;5017203;27;92352;-60
2022/01/04 12:08:44;;;;;;;5.22;2.03;;;;;;;;;;5015503;28;91655;-60
2022/01/04 12:11:22;;;;;;;4.55;1.40;;;;;;;;;;5015412;28;92377;-62
2022/01/04 12:13:50;;;;;;;5.47;1.27;;;;;;;;;;5014798;28;93411;-61
2022/01/04 12:16:35;;;;;;;7.90;1.33;;;;;;;;;;5031256;28;94833;-63
2022/01/04 12:19:03;;;;;;;10.57;1.40;;;;;;;;;;5012298;28;94193;-62
2022/01/04 12:21:31;;;;;;;7.00;1.48;;;;;;;;;;5019234;28;93416;-62
2022/01/04 12:23:58;;;;;;;5.93;1.38;;;;;;;;;;5001433;28;92329;-62
2022/01/04 12:26:26;;;;;;;2.33;1.05;;;;;;;;;;5018507;28;92907;-62
2022/01/04 12:28:55;;;;;;;4.07;1.02;;;;;;;;;;5015146;27;92580;-62
2022/01/04 12:31:24;;;;;;;2.40;1.10;;;;;;;;;;5016457;28;94568;-62
2022/01/04 12:33:53;;;;;;;4.75;1.00;;;;;;;;;;5015144;28;92861;-62
2022/01/04 12:36:23;;;;;;;4.53;1.27;;;;;;;;;;5015273;28;92608;-62
2022/01/04 12:38:50;;;;;;;2.15;1.23;;;;;;;;;;5033048;28;94249;-62
2022/01/04 12:41:16;;;;;;;2.10;1.30;;;;;;;;;;5025470;27;96850;-62
2022/01/04 12:43:47;;;;;;;3.90;1.38;;;;;;;;;;5014460;28;92489;-62
2022/01/04 12:46:14;;;;;;;4.25;1.17;;;;;;;;;;5014686;28;94192;-62
2022/01/04 12:48:44;;;;;;;1.25;0.98;;;;;;;;;;5033721;28;93346;-62
2022/01/04 12:51:24;;;;;;;3.83;1.10;;;;;;;;;;5027467;27;92579;-62
2022/01/04 12:53:54;;;;;;;7.75;1.10;;;;;;;;;;5033153;28;92918;-62
2022/01/04 12:56:20;;;;;;;2.90;1.15;;;;;;;;;;5028346;27;92517;-62
2022/01/04 12:58:46;;;;;;;5.18;1.13;;;;;;;;;;5019313;28;93278;-62
2022/01/04 13:01:13;;;;;;;8.38;1.65;;;;;;;;;;5015632;27;94323;-63
2022/01/04 13:03:39;;;;;;;4.93;1.30;;;;;;;;;;5014047;28;92824;-63
2022/01/04 13:06:06;;;;;;;1.67;1.13;;;;;;;;;;5012149;28;94837;-62
2022/01/04 13:08:33;;;;;;;2.90;0.90;;;;;;;;;;5014773;28;92363;-62
2022/01/04 13:11:03;;;;;;;1.02;0.90;;;;;;;;;;5034341;28;92462;-62
2022/01/04 13:13:30;;;;;;;3.05;0.82;;;;;;;;;;5011951;28;92735;-62
2022/01/04 13:16:16;;;;;;;2.55;1.30;;;;;;;;;;5011477;28;92525;-63
2022/01/04 13:18:42;;;;;;;2.83;0.90;;;;;;;;;;5016230;28;93518;-63
2022/01/04 13:21:09;;;;;;;5.65;1.15;;;;;;;;;;5018175;28;92872;-62
2022/01/04 13:23:38;;;;;;;2.78;0.80;;;;;;;;;;5018236;28;92224;-62
2022/01/04 13:26:05;;;;;;;1.97;1.00;;;;;;;;;;5022359;28;92395;-62
2022/01/04 13:28:33;;;;;;;1.60;1.13;;;;;;;;;;5018345;27;92915;-62
2022/01/04 13:30:59;;;;;;;2.05;0.90;;;;;;;;;;5013773;28;95709;-62
2022/01/04 13:33:25;;;;;;;3.65;0.95;;;;;;;;;;5034153;28;96597;-62
2022/01/04 13:35:53;;;;;;;3.03;0.95;;;;;;;;;;5031562;27;92477;-62
2022/01/04 13:38:21;;;;;;;5.88;1.05;;;;;;;;;;5025692;28;93870;-62
2022/01/04 13:40:48;;;;;;;2.30;1.08;;;;;;;;;;5033937;27;92395;-62
2022/01/04 13:43:16;;;;;;;4.82;1.08;;;;;;;;;;5020575;27;92585;-62
2022/01/04 13:45:44;;;;;;;3.38;0.70;;;;;;;;;;5023838;28;93070;-62
2022/01/04 13:48:11;;;;;;;0.70;0.70;;;;;;;;;;5022039;27;91869;-62
2022/01/04 13:50:43;;;;;;;0.68;0.68;;;;;;;;;;5018733;28;92488;-62
2022/01/04 13:53:17;;;;;;;2.25;0.70;;;;;;;;;;5013271;28;92425;-62
2022/01/04 13:55:48;;;;;;;2.00;0.80;;;;;;;;;;5014839;28;94795;-62
2022/01/04 13:58:33;;;;;;;5.00;0.80;;;;;;;;;;5013040;28;94181;-62
2022/01/04 14:01:11;;;;;;;0.70;0.70;;;;;;;;;;5013252;28;92492;-62
2022/01/04 14:03:38;;;;;;;0.77;0.77;;;;;;;;;;5012751;28;92673;-62
2022/01/04 14:06:04;;;;;;;1.38;0.70;;;;;;;;;;5012990;28;92575;-62
2022/01/04 14:08:49;;;;;;;1.15;0.80;;;;;;;;;;5013098;28;92505;-62
2022/01/04 14:11:22;;;;;;;1.02;0.70;;;;;;;;;;5026235;28;92827;-61
2022/01/04 14:13:50;;;;;;;2.42;0.50;;;;;;;;;;5015138;27;91983;-61
2022/01/04 14:16:17;;;;;;;0.85;0.70;;;;;;;;;;5012855;28;92500;-62
2022/01/04 14:19:05;;;;;;;1.42;0.57;;;;;;;;;;5007294;28;93828;-62
2022/01/04 14:21:33;;;;;;;2.78;0.60;;;;;;;;;;5008328;28;95812;-62
2022/01/04 14:23:59;;;;;;;1.13;0.50;;;;;;;;;;5012781;28;93248;-62
2022/01/04 14:26:27;;;;;;;2.10;0.90;;;;;;;;;;5011464;28;93102;-62
2022/01/04 14:28:54;;;;;;;2.15;0.70;;;;;;;;;;5015485;28;92430;-63
2022/01/04 14:31:20;;;;;;;3.60;0.80;;;;;;;;;;5032852;27;92653;-62
2022/01/04 14:33:47;;;;;;;2.30;0.60;;;;;;;;;;5034074;27;93876;-63
2022/01/04 14:36:13;;;;;;;1.27;0.60;;;;;;;;;;5017185;27;92462;-62
2022/01/04 14:38:39;;;;;;;1.17;0.60;;;;;;;;;;5016535;28;91729;-63
2022/01/04 14:41:09;;;;;;;1.75;0.73;;;;;;;;;;5012620;28;93629;-63
2022/01/04 14:43:35;;;;;;;1.42;0.65;;;;;;;;;;5012692;28;92364;-62
2022/01/04 14:46:01;;;;;;;2.45;0.70;;;;;;;;;;5028674;28;94723;-62
2022/01/04 14:48:28;;;;;;;0.52;0.40;;;;;;;;;;5032735;27;92545;-62
2022/01/04 14:50:54;;;;;;;1.75;0.57;;;;;;;;;;5027369;27;92442;-62